sensor_id;sensor_type;location;lat;lon;timestamp;P1;durP1;ratioP1;P2;durP2;ratioP2
48207;SDS011;33997;53.278;9.708;2023-08-20T00:00:03;25.08;;;14.63;;
48207;SDS011;33997;53.278;9.708;2023-08-20T00:02:30;28.45;;;13.38;;
48207;SDS011;33997;53.278;9.708;2023-08-20T00:04:58;25.02;;;13.68;;
48207;SDS011;33997;53.278;9.708;2023-08-20T00:07:24;26.48;;;14.38;;
48207;SDS011;33997;53.278;9.708;2023-08-20T00:09:49;32.20;;;15.88;;
48207;SDS011;33997;53.278;9.708;2023-08-20T00:12:15;27.38;;;15.45;;
48207;SDS011;33997;53.278;9.708;2023-08-20T00:14:59;29.23;;;16.35;;
48207;SDS011;33997;53.278;9.708;2023-08-20T00:17:32;36.53;;;16.15;;
48207;SDS011;33997;53.278;9.708;2023-08-20T00:19:58;33.40;;;17.45;;
48207;SDS011;33997;53.278;9.708;2023-08-20T00:22:25;41.55;;;16.88;;
48207;SDS011;33997;53.278;9.708;2023-08-20T00:24:51;28.77;;;16.05;;
48207;SDS011;33997;53.278;9.708;2023-08-20T00:27:17;37.50;;;16.42;;
48207;SDS011;33997;53.278;9.708;2023-08-20T00:29:43;29.80;;;15.25;;
48207;SDS011;33997;53.278;9.708;2023-08-20T00:32:08;32.55;;;15.90;;
48207;SDS011;33997;53.278;9.708;2023-08-20T00:34:34;34.45;;;15.57;;
48207;SDS011;33997;53.278;9.708;2023-08-20T00:37:00;32.38;;;15.93;;
48207;SDS011;33997;53.278;9.708;2023-08-20T00:39:27;35.15;;;17.08;;
48207;SDS011;33997;53.278;9.708;2023-08-20T00:41:53;36.03;;;17.77;;
48207;SDS011;33997;53.278;9.708;2023-08-20T00:44:18;40.67;;;18.27;;
48207;SDS011;33997;53.278;9.708;2023-08-20T00:46:44;36.65;;;19.48;;
48207;SDS011;33997;53.278;9.708;2023-08-20T00:49:10;43.42;;;20.02;;
48207;SDS011;33997;53.278;9.708;2023-08-20T00:51:35;42.08;;;20.95;;
48207;SDS011;33997;53.278;9.708;2023-08-20T00:54:01;38.63;;;20.52;;
48207;SDS011;33997;53.278;9.708;2023-08-20T00:56:28;40.60;;;19.45;;
48207;SDS011;33997;53.278;9.708;2023-08-20T00:58:54;47.30;;;21.00;;
48207;SDS011;33997;53.278;9.708;2023-08-20T01:01:20;41.08;;;20.02;;
48207;SDS011;33997;53.278;9.708;2023-08-20T01:03:47;41.30;;;19.35;;
48207;SDS011;33997;53.278;9.708;2023-08-20T01:06:19;50.95;;;21.92;;
48207;SDS011;33997;53.278;9.708;2023-08-20T01:09:11;47.33;;;20.60;;
48207;SDS011;33997;53.278;9.708;2023-08-20T01:12:06;42.92;;;20.20;;
48207;SDS011;33997;53.278;9.708;2023-08-20T01:14:33;46.20;;;21.27;;
48207;SDS011;33997;53.278;9.708;2023-08-20T01:16:59;54.90;;;24.63;;
48207;SDS011;33997;53.278;9.708;2023-08-20T01:19:24;61.33;;;24.75;;
48207;SDS011;33997;53.278;9.708;2023-08-20T01:21:56;58.50;;;25.33;;
48207;SDS011;33997;53.278;9.708;2023-08-20T01:24:59;62.40;;;26.30;;
48207;SDS011;33997;53.278;9.708;2023-08-20T01:27:39;49.15;;;25.58;;
48207;SDS011;33997;53.278;9.708;2023-08-20T01:30:14;62.60;;;25.80;;
48207;SDS011;33997;53.278;9.708;2023-08-20T01:32:41;60.72;;;26.95;;
48207;SDS011;33997;53.278;9.708;2023-08-20T01:35:11;58.88;;;26.27;;
48207;SDS011;33997;53.278;9.708;2023-08-20T01:37:38;61.42;;;24.48;;
48207;SDS011;33997;53.278;9.708;2023-08-20T01:40:04;54.72;;;24.15;;
48207;SDS011;33997;53.278;9.708;2023-08-20T01:42:32;56.58;;;24.75;;
48207;SDS011;33997;53.278;9.708;2023-08-20T01:44:57;58.63;;;24.58;;
48207;SDS011;33997;53.278;9.708;2023-08-20T01:47:23;64.50;;;24.70;;
48207;SDS011;33997;53.278;9.708;2023-08-20T01:49:48;67.97;;;26.27;;
48207;SDS011;33997;53.278;9.708;2023-08-20T01:52:14;61.47;;;24.50;;
48207;SDS011;33997;53.278;9.708;2023-08-20T01:54:39;82.53;;;26.08;;
48207;SDS011;33997;53.278;9.708;2023-08-20T01:57:05;60.75;;;24.10;;
48207;SDS011;33997;53.278;9.708;2023-08-20T01:59:30;63.45;;;23.38;;
48207;SDS011;33997;53.278;9.708;2023-08-20T02:01:56;50.20;;;24.83;;
48207;SDS011;33997;53.278;9.708;2023-08-20T02:04:21;56.33;;;25.42;;
48207;SDS011;33997;53.278;9.708;2023-08-20T02:06:47;49.35;;;24.08;;
48207;SDS011;33997;53.278;9.708;2023-08-20T02:09:12;46.13;;;24.08;;
48207;SDS011;33997;53.278;9.708;2023-08-20T02:11:38;60.42;;;25.17;;
48207;SDS011;33997;53.278;9.708;2023-08-20T02:14:03;52.38;;;25.58;;
48207;SDS011;33997;53.278;9.708;2023-08-20T02:16:29;60.72;;;24.50;;
48207;SDS011;33997;53.278;9.708;2023-08-20T02:18:54;48.88;;;24.67;;
48207;SDS011;33997;53.278;9.708;2023-08-20T02:21:19;58.65;;;24.40;;
48207;SDS011;33997;53.278;9.708;2023-08-20T02:23:45;47.85;;;24.00;;
48207;SDS011;33997;53.278;9.708;2023-08-20T02:26:10;83.95;;;25.75;;
48207;SDS011;33997;53.278;9.708;2023-08-20T02:28:36;60.97;;;23.92;;
48207;SDS011;33997;53.278;9.708;2023-08-20T02:31:05;53.17;;;23.67;;
48207;SDS011;33997;53.278;9.708;2023-08-20T02:33:31;57.05;;;24.67;;
48207;SDS011;33997;53.278;9.708;2023-08-20T02:36:00;75.22;;;25.88;;
48207;SDS011;33997;53.278;9.708;2023-08-20T02:38:27;69.28;;;27.33;;
48207;SDS011;33997;53.278;9.708;2023-08-20T02:40:53;61.10;;;23.73;;
48207;SDS011;33997;53.278;9.708;2023-08-20T02:43:19;62.45;;;26.02;;
48207;SDS011;33997;53.278;9.708;2023-08-20T02:45:44;50.78;;;24.38;;
48207;SDS011;33997;53.278;9.708;2023-08-20T02:48:10;72.40;;;25.15;;
48207;SDS011;33997;53.278;9.708;2023-08-20T02:50:36;46.95;;;24.05;;
48207;SDS011;33997;53.278;9.708;2023-08-20T02:53:01;47.45;;;24.42;;
48207;SDS011;33997;53.278;9.708;2023-08-20T02:55:28;77.95;;;24.25;;
48207;SDS011;33997;53.278;9.708;2023-08-20T02:57:54;99.57;;;23.63;;
48207;SDS011;33997;53.278;9.708;2023-08-20T03:00:20;113.00;;;26.08;;
48207;SDS011;33997;53.278;9.708;2023-08-20T03:02:45;52.13;;;24.73;;
48207;SDS011;33997;53.278;9.708;2023-08-20T03:05:11;102.35;;;24.33;;
48207;SDS011;33997;53.278;9.708;2023-08-20T03:07:36;119.75;;;26.10;;
48207;SDS011;33997;53.278;9.708;2023-08-20T03:10:02;143.18;;;26.02;;
48207;SDS011;33997;53.278;9.708;2023-08-20T03:12:28;161.88;;;26.67;;
48207;SDS011;33997;53.278;9.708;2023-08-20T03:14:53;130.27;;;24.75;;
48207;SDS011;33997;53.278;9.708;2023-08-20T03:17:19;111.90;;;20.17;;
48207;SDS011;33997;53.278;9.708;2023-08-20T03:19:58;99.95;;;19.65;;
48207;SDS011;33997;53.278;9.708;2023-08-20T03:22:25;132.70;;;21.15;;
48207;SDS011;33997;53.278;9.708;2023-08-20T03:24:51;77.43;;;20.60;;
48207;SDS011;33997;53.278;9.708;2023-08-20T03:27:18;65.88;;;19.15;;
48207;SDS011;33997;53.278;9.708;2023-08-20T03:29:44;131.80;;;23.20;;
48207;SDS011;33997;53.278;9.708;2023-08-20T03:32:10;112.18;;;23.17;;
48207;SDS011;33997;53.278;9.708;2023-08-20T03:34:35;45.90;;;19.88;;
48207;SDS011;33997;53.278;9.708;2023-08-20T03:37:01;138.77;;;23.85;;
48207;SDS011;33997;53.278;9.708;2023-08-20T03:39:27;130.23;;;22.33;;
48207;SDS011;33997;53.278;9.708;2023-08-20T03:41:53;133.10;;;22.55;;
48207;SDS011;33997;53.278;9.708;2023-08-20T03:44:19;77.18;;;19.08;;
48207;SDS011;33997;53.278;9.708;2023-08-20T03:46:44;51.17;;;18.65;;
48207;SDS011;33997;53.278;9.708;2023-08-20T03:49:10;109.88;;;22.33;;
48207;SDS011;33997;53.278;9.708;2023-08-20T03:51:35;69.70;;;19.25;;
48207;SDS011;33997;53.278;9.708;2023-08-20T03:54:01;50.47;;;19.25;;
48207;SDS011;33997;53.278;9.708;2023-08-20T03:56:27;88.75;;;19.15;;
48207;SDS011;33997;53.278;9.708;2023-08-20T03:58:53;37.53;;;18.00;;
48207;SDS011;33997;53.278;9.708;2023-08-20T04:01:18;59.28;;;17.13;;
48207;SDS011;33997;53.278;9.708;2023-08-20T04:03:45;84.63;;;18.17;;
48207;SDS011;33997;53.278;9.708;2023-08-20T04:06:11;136.18;;;20.55;;
48207;SDS011;33997;53.278;9.708;2023-08-20T04:08:36;65.93;;;16.70;;
48207;SDS011;33997;53.278;9.708;2023-08-20T04:11:02;43.33;;;17.40;;
48207;SDS011;33997;53.278;9.708;2023-08-20T04:13:28;42.25;;;17.08;;
48207;SDS011;33997;53.278;9.708;2023-08-20T04:15:54;97.07;;;18.42;;
48207;SDS011;33997;53.278;9.708;2023-08-20T04:18:20;66.88;;;17.23;;
48207;SDS011;33997;53.278;9.708;2023-08-20T04:20:45;58.13;;;17.38;;
48207;SDS011;33997;53.278;9.708;2023-08-20T04:23:11;76.95;;;18.27;;
48207;SDS011;33997;53.278;9.708;2023-08-20T04:25:36;90.25;;;18.67;;
48207;SDS011;33997;53.278;9.708;2023-08-20T04:28:02;112.45;;;22.17;;
48207;SDS011;33997;53.278;9.708;2023-08-20T04:30:27;33.65;;;16.27;;
48207;SDS011;33997;53.278;9.708;2023-08-20T04:32:53;56.22;;;19.17;;
48207;SDS011;33997;53.278;9.708;2023-08-20T04:35:18;59.05;;;17.25;;
48207;SDS011;33997;53.278;9.708;2023-08-20T04:37:44;70.35;;;18.30;;
48207;SDS011;33997;53.278;9.708;2023-08-20T04:40:10;32.80;;;15.88;;
48207;SDS011;33997;53.278;9.708;2023-08-20T04:42:35;84.97;;;19.98;;
48207;SDS011;33997;53.278;9.708;2023-08-20T04:45:01;41.97;;;17.90;;
48207;SDS011;33997;53.278;9.708;2023-08-20T04:47:26;64.85;;;17.13;;
48207;SDS011;33997;53.278;9.708;2023-08-20T04:49:52;75.55;;;17.83;;
48207;SDS011;33997;53.278;9.708;2023-08-20T04:52:17;35.80;;;16.40;;
48207;SDS011;33997;53.278;9.708;2023-08-20T04:54:45;84.40;;;15.63;;
48207;SDS011;33997;53.278;9.708;2023-08-20T04:57:11;85.28;;;14.35;;
48207;SDS011;33997;53.278;9.708;2023-08-20T04:59:36;122.65;;;15.52;;
48207;SDS011;33997;53.278;9.708;2023-08-20T05:02:02;107.47;;;14.50;;
48207;SDS011;33997;53.278;9.708;2023-08-20T05:04:27;56.05;;;13.48;;
48207;SDS011;33997;53.278;9.708;2023-08-20T05:06:53;33.42;;;13.10;;
48207;SDS011;33997;53.278;9.708;2023-08-20T05:09:18;72.32;;;13.55;;
48207;SDS011;33997;53.278;9.708;2023-08-20T05:11:44;93.35;;;13.68;;
48207;SDS011;33997;53.278;9.708;2023-08-20T05:14:09;80.30;;;13.68;;
48207;SDS011;33997;53.278;9.708;2023-08-20T05:16:35;84.75;;;12.10;;
48207;SDS011;33997;53.278;9.708;2023-08-20T05:19:00;35.67;;;12.23;;
48207;SDS011;33997;53.278;9.708;2023-08-20T05:21:26;37.72;;;12.00;;
48207;SDS011;33997;53.278;9.708;2023-08-20T05:23:51;22.27;;;10.27;;
48207;SDS011;33997;53.278;9.708;2023-08-20T05:26:16;35.42;;;9.77;;
48207;SDS011;33997;53.278;9.708;2023-08-20T05:28:42;27.85;;;9.55;;
48207;SDS011;33997;53.278;9.708;2023-08-20T05:31:07;29.17;;;9.20;;
48207;SDS011;33997;53.278;9.708;2023-08-20T05:33:33;65.05;;;10.68;;
48207;SDS011;33997;53.278;9.708;2023-08-20T05:35:59;33.47;;;9.98;;
48207;SDS011;33997;53.278;9.708;2023-08-20T05:38:25;30.15;;;10.27;;
48207;SDS011;33997;53.278;9.708;2023-08-20T05:40:50;42.42;;;11.38;;
48207;SDS011;33997;53.278;9.708;2023-08-20T05:43:16;45.95;;;10.77;;
48207;SDS011;33997;53.278;9.708;2023-08-20T05:45:41;46.95;;;10.70;;
48207;SDS011;33997;53.278;9.708;2023-08-20T05:48:07;57.22;;;10.93;;
48207;SDS011;33997;53.278;9.708;2023-08-20T05:50:32;48.33;;;10.15;;
48207;SDS011;33997;53.278;9.708;2023-08-20T05:52:58;51.83;;;10.43;;
48207;SDS011;33997;53.278;9.708;2023-08-20T05:55:23;54.28;;;9.45;;
48207;SDS011;33997;53.278;9.708;2023-08-20T05:57:49;34.45;;;9.70;;
48207;SDS011;33997;53.278;9.708;2023-08-20T06:00:15;41.80;;;9.48;;
48207;SDS011;33997;53.278;9.708;2023-08-20T06:02:42;38.35;;;9.35;;
48207;SDS011;33997;53.278;9.708;2023-08-20T06:05:08;55.42;;;9.80;;
48207;SDS011;33997;53.278;9.708;2023-08-20T06:07:34;35.05;;;8.70;;
48207;SDS011;33997;53.278;9.708;2023-08-20T06:09:59;27.45;;;8.70;;
48207;SDS011;33997;53.278;9.708;2023-08-20T06:12:25;29.77;;;8.27;;
48207;SDS011;33997;53.278;9.708;2023-08-20T06:14:50;22.73;;;7.40;;
48207;SDS011;33997;53.278;9.708;2023-08-20T06:17:16;27.50;;;8.02;;
48207;SDS011;33997;53.278;9.708;2023-08-20T06:19:41;24.17;;;8.30;;
48207;SDS011;33997;53.278;9.708;2023-08-20T06:22:07;21.55;;;8.20;;
48207;SDS011;33997;53.278;9.708;2023-08-20T06:24:32;17.90;;;7.93;;
48207;SDS011;33997;53.278;9.708;2023-08-20T06:26:58;25.60;;;8.10;;
48207;SDS011;33997;53.278;9.708;2023-08-20T06:29:23;23.65;;;8.07;;
48207;SDS011;33997;53.278;9.708;2023-08-20T06:31:49;24.95;;;8.77;;
48207;SDS011;33997;53.278;9.708;2023-08-20T06:34:15;11.88;;;8.18;;
48207;SDS011;33997;53.278;9.708;2023-08-20T06:36:41;13.20;;;8.70;;
48207;SDS011;33997;53.278;9.708;2023-08-20T06:39:06;12.40;;;8.38;;
48207;SDS011;33997;53.278;9.708;2023-08-20T06:41:32;13.38;;;8.55;;
48207;SDS011;33997;53.278;9.708;2023-08-20T06:43:58;13.02;;;8.05;;
48207;SDS011;33997;53.278;9.708;2023-08-20T06:46:24;11.70;;;8.02;;
48207;SDS011;33997;53.278;9.708;2023-08-20T06:48:49;10.73;;;7.90;;
48207;SDS011;33997;53.278;9.708;2023-08-20T06:51:15;12.63;;;7.55;;
48207;SDS011;33997;53.278;9.708;2023-08-20T06:53:43;13.68;;;8.20;;
48207;SDS011;33997;53.278;9.708;2023-08-20T06:56:09;10.32;;;8.13;;
48207;SDS011;33997;53.278;9.708;2023-08-20T06:58:36;13.75;;;8.48;;
48207;SDS011;33997;53.278;9.708;2023-08-20T07:01:02;13.25;;;8.60;;
48207;SDS011;33997;53.278;9.708;2023-08-20T07:03:34;12.25;;;9.13;;
48207;SDS011;33997;53.278;9.708;2023-08-20T07:06:04;13.27;;;9.48;;
48207;SDS011;33997;53.278;9.708;2023-08-20T07:08:30;12.75;;;8.73;;
48207;SDS011;33997;53.278;9.708;2023-08-20T07:10:55;11.90;;;8.90;;
48207;SDS011;33997;53.278;9.708;2023-08-20T07:13:21;14.57;;;8.75;;
48207;SDS011;33997;53.278;9.708;2023-08-20T07:15:47;14.15;;;9.52;;
48207;SDS011;33997;53.278;9.708;2023-08-20T07:18:13;13.73;;;8.40;;
48207;SDS011;33997;53.278;9.708;2023-08-20T07:20:40;12.32;;;8.73;;
48207;SDS011;33997;53.278;9.708;2023-08-20T07:23:09;14.23;;;9.27;;
48207;SDS011;33997;53.278;9.708;2023-08-20T07:25:38;14.00;;;9.68;;
48207;SDS011;33997;53.278;9.708;2023-08-20T07:28:05;12.50;;;8.70;;
48207;SDS011;33997;53.278;9.708;2023-08-20T07:30:32;11.38;;;8.38;;
48207;SDS011;33997;53.278;9.708;2023-08-20T07:32:57;11.30;;;8.65;;
48207;SDS011;33997;53.278;9.708;2023-08-20T07:35:23;14.73;;;9.35;;
48207;SDS011;33997;53.278;9.708;2023-08-20T07:37:49;14.77;;;8.90;;
48207;SDS011;33997;53.278;9.708;2023-08-20T07:40:14;12.85;;;9.20;;
48207;SDS011;33997;53.278;9.708;2023-08-20T07:42:40;13.45;;;8.27;;
48207;SDS011;33997;53.278;9.708;2023-08-20T07:45:06;11.90;;;8.68;;
48207;SDS011;33997;53.278;9.708;2023-08-20T07:47:32;17.67;;;8.88;;
48207;SDS011;33997;53.278;9.708;2023-08-20T07:49:58;13.43;;;8.43;;
48207;SDS011;33997;53.278;9.708;2023-08-20T07:52:24;13.10;;;8.32;;
48207;SDS011;33997;53.278;9.708;2023-08-20T07:54:49;12.65;;;8.23;;
48207;SDS011;33997;53.278;9.708;2023-08-20T07:57:15;11.77;;;7.57;;
48207;SDS011;33997;53.278;9.708;2023-08-20T07:59:40;10.98;;;6.20;;
48207;SDS011;33997;53.278;9.708;2023-08-20T08:02:06;11.65;;;5.78;;
48207;SDS011;33997;53.278;9.708;2023-08-20T08:04:31;11.48;;;5.38;;
48207;SDS011;33997;53.278;9.708;2023-08-20T08:06:57;12.77;;;5.43;;
48207;SDS011;33997;53.278;9.708;2023-08-20T08:09:30;10.27;;;3.83;;
48207;SDS011;33997;53.278;9.708;2023-08-20T08:11:56;9.00;;;3.58;;
48207;SDS011;33997;53.278;9.708;2023-08-20T08:14:22;9.15;;;3.65;;
48207;SDS011;33997;53.278;9.708;2023-08-20T08:16:48;9.10;;;4.00;;
48207;SDS011;33997;53.278;9.708;2023-08-20T08:19:14;8.38;;;3.60;;
48207;SDS011;33997;53.278;9.708;2023-08-20T08:21:40;8.38;;;3.10;;
48207;SDS011;33997;53.278;9.708;2023-08-20T08:24:08;11.27;;;3.20;;
48207;SDS011;33997;53.278;9.708;2023-08-20T08:26:33;9.15;;;2.58;;
48207;SDS011;33997;53.278;9.708;2023-08-20T08:29:00;9.38;;;2.03;;
48207;SDS011;33997;53.278;9.708;2023-08-20T08:31:26;9.90;;;2.17;;
48207;SDS011;33997;53.278;9.708;2023-08-20T08:33:52;6.05;;;2.22;;
48207;SDS011;33997;53.278;9.708;2023-08-20T08:36:17;11.00;;;2.10;;
48207;SDS011;33997;53.278;9.708;2023-08-20T08:38:43;7.28;;;2.33;;
48207;SDS011;33997;53.278;9.708;2023-08-20T08:41:11;9.27;;;2.30;;
48207;SDS011;33997;53.278;9.708;2023-08-20T08:43:37;8.93;;;2.00;;
48207;SDS011;33997;53.278;9.708;2023-08-20T08:46:05;5.03;;;2.05;;
48207;SDS011;33997;53.278;9.708;2023-08-20T08:48:32;8.73;;;2.13;;
48207;SDS011;33997;53.278;9.708;2023-08-20T08:51:00;7.53;;;1.63;;
48207;SDS011;33997;53.278;9.708;2023-08-20T08:53:27;5.47;;;1.92;;
48207;SDS011;33997;53.278;9.708;2023-08-20T08:55:53;7.85;;;2.42;;
48207;SDS011;33997;53.278;9.708;2023-08-20T08:58:19;4.03;;;1.60;;
48207;SDS011;33997;53.278;9.708;2023-08-20T09:00:44;8.73;;;2.28;;
48207;SDS011;33997;53.278;9.708;2023-08-20T09:03:10;6.25;;;2.20;;
48207;SDS011;33997;53.278;9.708;2023-08-20T09:05:45;8.52;;;2.60;;
48207;SDS011;33997;53.278;9.708;2023-08-20T09:08:20;7.65;;;2.63;;
48207;SDS011;33997;53.278;9.708;2023-08-20T09:10:49;5.95;;;1.80;;
48207;SDS011;33997;53.278;9.708;2023-08-20T09:13:16;9.10;;;2.03;;
48207;SDS011;33997;53.278;9.708;2023-08-20T09:15:41;10.57;;;2.55;;
48207;SDS011;33997;53.278;9.708;2023-08-20T09:18:10;7.18;;;2.45;;
48207;SDS011;33997;53.278;9.708;2023-08-20T09:20:36;8.00;;;2.30;;
48207;SDS011;33997;53.278;9.708;2023-08-20T09:23:02;6.55;;;2.17;;
48207;SDS011;33997;53.278;9.708;2023-08-20T09:25:28;6.07;;;2.22;;
48207;SDS011;33997;53.278;9.708;2023-08-20T09:27:54;4.95;;;1.83;;
48207;SDS011;33997;53.278;9.708;2023-08-20T09:30:19;9.45;;;2.58;;
48207;SDS011;33997;53.278;9.708;2023-08-20T09:32:45;8.45;;;2.50;;
48207;SDS011;33997;53.278;9.708;2023-08-20T09:35:27;9.82;;;2.42;;
48207;SDS011;33997;53.278;9.708;2023-08-20T09:37:52;6.57;;;2.40;;
48207;SDS011;33997;53.278;9.708;2023-08-20T09:40:28;9.05;;;2.42;;
48207;SDS011;33997;53.278;9.708;2023-08-20T09:42:54;7.80;;;2.40;;
48207;SDS011;33997;53.278;9.708;2023-08-20T09:45:20;8.90;;;2.28;;
48207;SDS011;33997;53.278;9.708;2023-08-20T09:47:48;6.10;;;2.40;;
48207;SDS011;33997;53.278;9.708;2023-08-20T09:50:14;10.40;;;2.38;;
48207;SDS011;33997;53.278;9.708;2023-08-20T09:53:03;9.27;;;2.58;;
48207;SDS011;33997;53.278;9.708;2023-08-20T09:55:33;8.73;;;2.20;;
48207;SDS011;33997;53.278;9.708;2023-08-20T09:58:01;7.53;;;2.33;;
48207;SDS011;33997;53.278;9.708;2023-08-20T10:00:28;7.88;;;2.20;;
48207;SDS011;33997;53.278;9.708;2023-08-20T10:02:54;6.72;;;2.13;;
48207;SDS011;33997;53.278;9.708;2023-08-20T10:05:20;7.05;;;2.10;;
48207;SDS011;33997;53.278;9.708;2023-08-20T10:07:48;8.00;;;2.65;;
48207;SDS011;33997;53.278;9.708;2023-08-20T10:10:14;7.10;;;2.33;;
48207;SDS011;33997;53.278;9.708;2023-08-20T10:12:41;8.13;;;2.50;;
48207;SDS011;33997;53.278;9.708;2023-08-20T10:15:09;6.82;;;2.45;;
48207;SDS011;33997;53.278;9.708;2023-08-20T10:17:37;7.55;;;1.98;;
48207;SDS011;33997;53.278;9.708;2023-08-20T10:20:04;10.35;;;2.47;;
48207;SDS011;33997;53.278;9.708;2023-08-20T10:22:34;7.78;;;2.20;;
48207;SDS011;33997;53.278;9.708;2023-08-20T10:25:05;6.82;;;2.08;;
48207;SDS011;33997;53.278;9.708;2023-08-20T10:27:36;10.68;;;2.40;;
48207;SDS011;33997;53.278;9.708;2023-08-20T10:30:10;9.27;;;1.92;;
48207;SDS011;33997;53.278;9.708;2023-08-20T10:32:51;6.05;;;2.05;;
48207;SDS011;33997;53.278;9.708;2023-08-20T10:35:18;7.53;;;2.05;;
48207;SDS011;33997;53.278;9.708;2023-08-20T10:38:12;7.97;;;1.98;;
48207;SDS011;33997;53.278;9.708;2023-08-20T10:43:25;8.77;;;2.13;;
48207;SDS011;33997;53.278;9.708;2023-08-20T10:46:02;7.65;;;2.25;;
48207;SDS011;33997;53.278;9.708;2023-08-20T10:48:33;6.90;;;1.63;;
48207;SDS011;33997;53.278;9.708;2023-08-20T10:51:10;7.28;;;2.17;;
48207;SDS011;33997;53.278;9.708;2023-08-20T10:53:36;8.60;;;2.50;;
48207;SDS011;33997;53.278;9.708;2023-08-20T10:56:08;9.10;;;2.45;;
48207;SDS011;33997;53.278;9.708;2023-08-20T10:58:33;7.85;;;2.00;;
48207;SDS011;33997;53.278;9.708;2023-08-20T11:01:12;6.57;;;2.00;;
48207;SDS011;33997;53.278;9.708;2023-08-20T11:03:45;6.35;;;1.85;;
48207;SDS011;33997;53.278;9.708;2023-08-20T11:06:11;5.35;;;1.70;;
48207;SDS011;33997;53.278;9.708;2023-08-20T11:08:37;6.03;;;1.80;;
48207;SDS011;33997;53.278;9.708;2023-08-20T11:11:04;7.97;;;2.05;;
48207;SDS011;33997;53.278;9.708;2023-08-20T11:13:31;4.43;;;1.83;;
48207;SDS011;33997;53.278;9.708;2023-08-20T11:15:57;9.15;;;1.95;;
48207;SDS011;33997;53.278;9.708;2023-08-20T11:18:24;4.90;;;1.63;;
48207;SDS011;33997;53.278;9.708;2023-08-20T11:20:50;8.85;;;2.15;;
48207;SDS011;33997;53.278;9.708;2023-08-20T11:23:16;9.50;;;2.13;;
48207;SDS011;33997;53.278;9.708;2023-08-20T11:25:42;6.75;;;1.88;;
48207;SDS011;33997;53.278;9.708;2023-08-20T11:28:08;7.25;;;2.40;;
48207;SDS011;33997;53.278;9.708;2023-08-20T11:30:34;7.30;;;1.90;;
48207;SDS011;33997;53.278;9.708;2023-08-20T11:33:00;5.18;;;1.42;;
48207;SDS011;33997;53.278;9.708;2023-08-20T11:35:25;6.05;;;2.25;;
48207;SDS011;33997;53.278;9.708;2023-08-20T11:37:51;7.00;;;2.15;;
48207;SDS011;33997;53.278;9.708;2023-08-20T11:40:20;5.53;;;1.90;;
48207;SDS011;33997;53.278;9.708;2023-08-20T11:42:45;7.60;;;1.95;;
48207;SDS011;33997;53.278;9.708;2023-08-20T11:45:11;6.78;;;2.30;;
48207;SDS011;33997;53.278;9.708;2023-08-20T11:47:40;4.85;;;1.80;;
48207;SDS011;33997;53.278;9.708;2023-08-20T11:50:06;5.65;;;2.55;;
48207;SDS011;33997;53.278;9.708;2023-08-20T11:52:34;4.82;;;1.73;;
48207;SDS011;33997;53.278;9.708;2023-08-20T11:55:01;10.93;;;2.05;;
48207;SDS011;33997;53.278;9.708;2023-08-20T11:57:28;8.50;;;1.80;;
48207;SDS011;33997;53.278;9.708;2023-08-20T11:59:54;8.57;;;2.03;;
48207;SDS011;33997;53.278;9.708;2023-08-20T12:02:26;6.80;;;1.98;;
48207;SDS011;33997;53.278;9.708;2023-08-20T12:04:54;4.40;;;2.03;;
48207;SDS011;33997;53.278;9.708;2023-08-20T12:07:21;5.20;;;1.85;;
48207;SDS011;33997;53.278;9.708;2023-08-20T12:09:50;8.52;;;2.63;;
48207;SDS011;33997;53.278;9.708;2023-08-20T12:12:16;8.98;;;2.10;;
48207;SDS011;33997;53.278;9.708;2023-08-20T12:14:45;6.57;;;2.03;;
48207;SDS011;33997;53.278;9.708;2023-08-20T12:17:11;6.68;;;2.00;;
48207;SDS011;33997;53.278;9.708;2023-08-20T12:19:36;6.65;;;2.10;;
48207;SDS011;33997;53.278;9.708;2023-08-20T12:22:02;7.82;;;1.70;;
48207;SDS011;33997;53.278;9.708;2023-08-20T12:24:28;4.75;;;1.75;;
48207;SDS011;33997;53.278;9.708;2023-08-20T12:26:54;5.18;;;1.70;;
48207;SDS011;33997;53.278;9.708;2023-08-20T12:29:19;8.85;;;2.28;;
48207;SDS011;33997;53.278;9.708;2023-08-20T12:31:45;8.48;;;2.25;;
48207;SDS011;33997;53.278;9.708;2023-08-20T12:34:10;5.28;;;1.88;;
48207;SDS011;33997;53.278;9.708;2023-08-20T12:36:36;5.40;;;1.48;;
48207;SDS011;33997;53.278;9.708;2023-08-20T12:39:02;6.63;;;1.80;;
48207;SDS011;33997;53.278;9.708;2023-08-20T12:41:29;4.93;;;1.65;;
48207;SDS011;33997;53.278;9.708;2023-08-20T12:43:54;5.25;;;1.67;;
48207;SDS011;33997;53.278;9.708;2023-08-20T12:46:20;5.82;;;1.80;;
48207;SDS011;33997;53.278;9.708;2023-08-20T12:48:46;6.63;;;1.77;;
48207;SDS011;33997;53.278;9.708;2023-08-20T12:51:11;5.85;;;1.90;;
48207;SDS011;33997;53.278;9.708;2023-08-20T12:53:42;4.05;;;1.38;;
48207;SDS011;33997;53.278;9.708;2023-08-20T12:56:07;4.88;;;1.58;;
48207;SDS011;33997;53.278;9.708;2023-08-20T12:58:33;7.25;;;1.80;;
48207;SDS011;33997;53.278;9.708;2023-08-20T13:00:58;6.22;;;1.92;;
48207;SDS011;33997;53.278;9.708;2023-08-20T13:03:24;6.85;;;1.88;;
48207;SDS011;33997;53.278;9.708;2023-08-20T13:05:50;5.32;;;1.83;;
48207;SDS011;33997;53.278;9.708;2023-08-20T13:08:15;7.28;;;2.00;;
48207;SDS011;33997;53.278;9.708;2023-08-20T13:10:41;9.02;;;2.20;;
48207;SDS011;33997;53.278;9.708;2023-08-20T13:13:11;5.03;;;1.95;;
48207;SDS011;33997;53.278;9.708;2023-08-20T13:15:37;8.25;;;1.95;;
48207;SDS011;33997;53.278;9.708;2023-08-20T13:18:03;7.57;;;1.92;;
48207;SDS011;33997;53.278;9.708;2023-08-20T13:20:29;5.90;;;1.70;;
48207;SDS011;33997;53.278;9.708;2023-08-20T13:22:56;4.95;;;1.88;;
48207;SDS011;33997;53.278;9.708;2023-08-20T13:25:21;4.22;;;1.77;;
48207;SDS011;33997;53.278;9.708;2023-08-20T13:27:47;6.35;;;1.73;;
48207;SDS011;33997;53.278;9.708;2023-08-20T13:30:13;7.57;;;2.22;;
48207;SDS011;33997;53.278;9.708;2023-08-20T13:32:39;6.60;;;2.00;;
48207;SDS011;33997;53.278;9.708;2023-08-20T13:35:04;6.78;;;1.92;;
48207;SDS011;33997;53.278;9.708;2023-08-20T13:37:30;5.13;;;2.05;;
48207;SDS011;33997;53.278;9.708;2023-08-20T13:39:57;5.22;;;2.03;;
48207;SDS011;33997;53.278;9.708;2023-08-20T13:42:23;5.30;;;2.15;;
48207;SDS011;33997;53.278;9.708;2023-08-20T13:44:48;7.03;;;2.13;;
48207;SDS011;33997;53.278;9.708;2023-08-20T13:47:14;6.88;;;1.90;;
48207;SDS011;33997;53.278;9.708;2023-08-20T13:49:39;6.95;;;2.30;;
48207;SDS011;33997;53.278;9.708;2023-08-20T13:52:05;6.95;;;2.30;;
48207;SDS011;33997;53.278;9.708;2023-08-20T13:54:31;7.22;;;2.22;;
48207;SDS011;33997;53.278;9.708;2023-08-20T13:56:57;7.22;;;2.40;;
48207;SDS011;33997;53.278;9.708;2023-08-20T13:59:23;8.90;;;2.50;;
48207;SDS011;33997;53.278;9.708;2023-08-20T14:01:48;6.93;;;2.30;;
48207;SDS011;33997;53.278;9.708;2023-08-20T14:04:14;7.05;;;2.30;;
48207;SDS011;33997;53.278;9.708;2023-08-20T14:06:39;6.45;;;2.33;;
48207;SDS011;33997;53.278;9.708;2023-08-20T14:09:05;6.13;;;2.13;;
48207;SDS011;33997;53.278;9.708;2023-08-20T14:11:30;8.40;;;2.28;;
48207;SDS011;33997;53.278;9.708;2023-08-20T14:13:56;6.57;;;2.08;;
48207;SDS011;33997;53.278;9.708;2023-08-20T14:16:22;6.50;;;2.25;;
48207;SDS011;33997;53.278;9.708;2023-08-20T14:18:47;4.45;;;1.75;;
48207;SDS011;33997;53.278;9.708;2023-08-20T14:21:13;7.55;;;1.70;;
48207;SDS011;33997;53.278;9.708;2023-08-20T14:23:38;5.03;;;1.85;;
48207;SDS011;33997;53.278;9.708;2023-08-20T14:26:05;5.40;;;2.03;;
48207;SDS011;33997;53.278;9.708;2023-08-20T14:28:31;7.05;;;2.08;;
48207;SDS011;33997;53.278;9.708;2023-08-20T14:30:57;4.72;;;2.05;;
48207;SDS011;33997;53.278;9.708;2023-08-20T14:33:28;4.97;;;1.80;;